Terminal Aerodrome Forecast
Issued by NWS

Home | Current Version | Previous Version | Text Only | Print | Product List | Glossary On
Versions: 1 2 3 4 5 6 7 8 9 10 11 12 13 14 15 16 17 18 19 20 21 22
000
FTUS43 KIND 281229 AAA
TAFHUF
TAF AMD
KHUF 281229Z 2812/2912 00000KT P6SM FEW004
     FM281400 12005KT P6SM SCT025 BKN250
     FM281800 12005KT P6SM VCTS SCT035CB BKN250
     FM290200 05004KT P6SM BKN250
     FM290700 04002KT 3SM BR BKN200=

USA.gov is the U.S. government's official web portal to all federal, state and local government web resources and services.